Winamac, Indiana
Current Conditions -  °F | °C
As of 1:15 AM on Friday 31 Oct 2014 (Local Time) from KOXI Reporting Station
Overcast Overcast  
Wind Chill: 39°   Ceiling: 5500
Heat Index: 42°   Visibility: 10mi
Dew Point: 36°   Wind: 5mph
Humidity: 79%   Direction: 250°WSW
Pressure: 30.01"   Gusts: NA
Location:  41.05°N, 86.6°W
Report Text: KOXI 310615Z AUTO 25004KT 10SM OVC055 06/02 A3001 RMK AO1 T00570023
Loading
Personal Weather Stations






























Interactive Weather Map
Tropical Storm Tracking
New forecast layout! Learn more

10-Day Weather Forecast

Advertisements
Track Severe Weather on mobile